createdAt,value
2022-09-21T00:01:39.767Z,11.80
2022-09-21T00:04:09.774Z,11.80
2022-09-21T00:06:39.177Z,11.80
2022-09-21T00:09:09.385Z,11.80
2022-09-21T00:11:38.742Z,11.80
2022-09-21T00:14:10.640Z,11.70
2022-09-21T00:16:40.103Z,11.80
2022-09-21T00:19:10.355Z,11.70
2022-09-21T00:21:39.284Z,11.70
2022-09-21T00:24:08.811Z,11.70
2022-09-21T00:26:37.369Z,11.70
2022-09-21T00:29:06.034Z,11.70
2022-09-21T00:31:35.328Z,11.60
2022-09-21T00:34:07.593Z,11.60
2022-09-21T00:36:37.782Z,11.60
2022-09-21T00:39:05.907Z,11.60
2022-09-21T00:41:35.771Z,11.60
2022-09-21T00:44:32.443Z,11.60
2022-09-21T00:47:06.201Z,11.60
2022-09-21T00:49:35.855Z,11.50
2022-09-21T00:52:08.443Z,11.50
2022-09-21T00:54:44.048Z,11.50
2022-09-21T00:57:12.925Z,11.50
2022-09-21T00:59:42.302Z,11.50
2022-09-21T01:02:10.790Z,11.40
2022-09-21T01:04:40.195Z,11.50
2022-09-21T01:07:15.000Z,11.40
2022-09-21T01:09:44.921Z,11.40
2022-09-21T01:12:26.962Z,11.40
2022-09-21T01:15:15.223Z,11.40
2022-09-21T01:17:51.396Z,11.40
2022-09-21T01:20:52.535Z,11.30
2022-09-21T01:23:45.195Z,11.30
2022-09-21T01:26:23.120Z,11.20
2022-09-21T01:29:15.253Z,11.20
2022-09-21T01:31:47.862Z,11.20
2022-09-21T01:34:23.243Z,11.20
2022-09-21T01:36:55.804Z,11.10
2022-09-21T01:39:26.444Z,11.10
2022-09-21T01:41:56.773Z,11.10
2022-09-21T01:44:30.857Z,11.10
2022-09-21T01:47:01.272Z,11.00
2022-09-21T01:49:34.876Z,11.10
2022-09-21T01:52:10.396Z,11.00
2022-09-21T01:54:43.738Z,11.00
2022-09-21T01:57:18.235Z,11.00
2022-09-21T01:59:53.836Z,10.90
2022-09-21T02:02:26.525Z,10.90
2022-09-21T02:04:55.184Z,10.80
2022-09-21T02:07:23.803Z,10.80
2022-09-21T02:09:51.900Z,10.80
2022-09-21T02:12:20.365Z,11.50
2022-09-21T02:14:52.206Z,10.70
2022-09-21T02:17:32.768Z,10.70
2022-09-21T02:20:08.767Z,10.70
2022-09-21T02:22:42.493Z,10.60
2022-09-21T02:25:15.262Z,10.60
2022-09-21T02:27:51.713Z,10.50
2022-09-21T02:34:20.770Z,10.50
2022-09-21T02:36:51.460Z,10.50
2022-09-21T02:39:26.523Z,10.50
2022-09-21T02:42:03.775Z,10.50
2022-09-21T02:44:36.445Z,10.50
2022-09-21T02:47:10.307Z,10.50
2022-09-21T02:49:44.775Z,10.50
2022-09-21T02:52:18.212Z,10.40
2022-09-21T02:54:48.691Z,10.40
2022-09-21T02:57:20.125Z,10.40
2022-09-21T02:59:48.471Z,10.40
2022-09-21T03:02:16.967Z,10.40
2022-09-21T03:04:49.080Z,10.40
2022-09-21T03:07:18.241Z,10.30
2022-09-21T03:09:47.033Z,10.30
2022-09-21T03:12:15.101Z,10.30
2022-09-21T03:14:43.895Z,10.30
2022-09-21T03:17:12.365Z,10.20
2022-09-21T03:19:40.706Z,10.20
2022-09-21T03:22:10.641Z,10.20
2022-09-21T03:24:48.136Z,10.20
2022-09-21T03:27:18.413Z,10.10
2022-09-21T03:29:47.211Z,10.10
2022-09-21T03:32:16.054Z,10.10
2022-09-21T03:34:44.140Z,10.10
2022-09-21T03:37:14.060Z,10.10
2022-09-21T03:39:42.096Z,10.10
2022-09-21T03:42:10.678Z,10.10
2022-09-21T03:44:39.165Z,10.10
2022-09-21T03:47:07.604Z,10.10
2022-09-21T03:49:36.385Z,10.10
2022-09-21T03:52:05.173Z,10.10
2022-09-21T03:54:34.818Z,10.10
2022-09-21T03:57:02.895Z,10.10
2022-09-21T03:59:31.136Z,10.10
2022-09-21T04:01:59.291Z,10.00
2022-09-21T04:04:27.310Z,10.10
2022-09-21T04:06:55.803Z,10.00
2022-09-21T04:09:23.884Z,10.00
2022-09-21T04:11:53.941Z,10.00
2022-09-21T04:14:23.714Z,10.00
2022-09-21T04:16:52.114Z,10.00
2022-09-21T04:19:21.528Z,10.00
2022-09-21T04:21:51.489Z,10.00
2022-09-21T04:24:19.832Z,10.00
2022-09-21T04:26:48.430Z,10.10
2022-09-21T04:29:17.955Z,10.10
2022-09-21T04:31:46.421Z,10.10
2022-09-21T04:34:15.781Z,10.10
2022-09-21T04:36:44.349Z,10.10
2022-09-21T04:39:12.419Z,10.10
2022-09-21T04:41:40.504Z,10.10
2022-09-21T04:44:09.201Z,10.20
2022-09-21T04:46:38.824Z,10.10
2022-09-21T04:49:07.301Z,10.10
2022-09-21T04:51:35.851Z,10.10
2022-09-21T04:54:04.147Z,10.10
2022-09-21T04:56:32.633Z,10.10
2022-09-21T04:59:00.671Z,10.10
2022-09-21T05:01:29.430Z,10.10
2022-09-21T05:04:02.221Z,10.10
2022-09-21T05:06:31.051Z,10.10
2022-09-21T05:09:16.889Z,10.10
2022-09-21T05:11:45.682Z,10.10
2022-09-21T05:14:14.226Z,10.10
2022-09-21T05:16:42.304Z,10.10
2022-09-21T05:19:12.174Z,10.10
2022-09-21T05:21:40.223Z,10.10
2022-09-21T05:24:09.025Z,10.10
2022-09-21T05:26:37.140Z,10.10
2022-09-21T05:29:06.677Z,10.20
2022-09-21T05:31:42.845Z,10.20
2022-09-21T05:34:31.907Z,10.20
2022-09-21T05:37:11.259Z,10.20
2022-09-21T05:39:40.232Z,10.20
2022-09-21T05:42:10.469Z,10.20
2022-09-21T05:44:39.603Z,10.20
2022-09-21T05:47:19.543Z,10.20
2022-09-21T05:49:56.804Z,10.20
2022-09-21T05:52:32.993Z,10.20
2022-09-21T05:55:07.242Z,10.20
2022-09-21T05:57:45.738Z,10.20
2022-09-21T06:00:18.824Z,10.30
2022-09-21T06:03:01.893Z,10.30
2022-09-21T06:05:31.555Z,10.30
2022-09-21T06:08:00.455Z,10.30
2022-09-21T06:10:33.461Z,10.40
2022-09-21T06:13:02.265Z,10.40
2022-09-21T06:15:30.476Z,10.40
2022-09-21T06:18:00.339Z,10.40
2022-09-21T06:20:28.498Z,10.40
2022-09-21T06:23:02.916Z,10.40
2022-09-21T06:25:31.225Z,10.50
2022-09-21T06:28:04.922Z,10.50
2022-09-21T06:30:34.838Z,10.50
2022-09-21T06:33:03.785Z,10.50
2022-09-21T06:35:33.807Z,10.50
2022-09-21T06:38:04.408Z,10.50
2022-09-21T06:40:34.237Z,10.50
2022-09-21T06:43:03.436Z,10.60
2022-09-21T06:45:32.281Z,10.50
2022-09-21T06:48:00.934Z,10.60
2022-09-21T06:50:29.041Z,10.60
2022-09-21T06:52:57.143Z,10.60
2022-09-21T06:55:26.530Z,10.60
2022-09-21T06:57:57.016Z,10.60
2022-09-21T07:00:25.080Z,10.60
2022-09-21T07:02:53.134Z,10.60
2022-09-21T07:05:21.639Z,10.70
2022-09-21T07:07:53.482Z,10.70
2022-09-21T07:10:22.739Z,10.70
2022-09-21T07:12:52.856Z,10.70
2022-09-21T07:15:21.566Z,10.70
2022-09-21T07:17:52.086Z,10.80
2022-09-21T07:20:20.698Z,10.80
2022-09-21T07:22:48.838Z,10.80
2022-09-21T07:25:17.149Z,11.50
2022-09-21T07:27:45.632Z,10.90
2022-09-21T07:30:15.709Z,11.00
2022-09-21T07:32:43.754Z,11.00
2022-09-21T07:35:12.674Z,11.00
2022-09-21T07:37:40.728Z,11.00
2022-09-21T07:40:10.331Z,11.10
2022-09-21T07:42:38.405Z,11.10
2022-09-21T07:45:08.131Z,11.20
2022-09-21T07:47:38.044Z,11.20
2022-09-21T07:50:06.668Z,11.20
2022-09-21T07:52:35.582Z,11.30
2022-09-21T07:55:03.607Z,11.30
2022-09-21T07:57:49.409Z,11.40
2022-09-21T08:00:18.212Z,11.50
2022-09-21T08:02:48.122Z,11.50
2022-09-21T08:05:16.630Z,11.60
2022-09-21T08:07:45.231Z,11.60
2022-09-21T08:10:13.267Z,11.70
2022-09-21T08:12:41.723Z,11.80
2022-09-21T08:15:30.678Z,11.80
2022-09-21T08:18:01.738Z,11.90
2022-09-21T08:20:30.281Z,12.00
2022-09-21T08:22:58.768Z,12.00
2022-09-21T08:25:27.801Z,12.00
2022-09-21T08:27:59.931Z,12.10
2022-09-21T08:30:31.536Z,12.10
2022-09-21T08:33:00.960Z,12.20
2022-09-21T08:35:29.729Z,12.20
2022-09-21T08:37:57.743Z,12.20
2022-09-21T08:40:26.300Z,12.30
2022-09-21T08:43:01.146Z,12.40
2022-09-21T08:45:35.884Z,12.40
2022-09-21T08:48:09.462Z,12.50
2022-09-21T08:50:43.531Z,12.50
2022-09-21T08:53:15.515Z,12.60
2022-09-21T08:55:43.616Z,12.70
2022-09-21T08:58:22.733Z,12.70
2022-09-21T09:01:02.387Z,12.80
2022-09-21T09:04:06.927Z,12.90
2022-09-21T09:06:43.241Z,13.00
2022-09-21T09:09:28.228Z,13.00
2022-09-21T09:12:12.107Z,13.10
2022-09-21T09:15:04.531Z,13.10
2022-09-21T09:17:45.377Z,13.20
2022-09-21T09:20:20.954Z,13.20
2022-09-21T09:23:04.244Z,13.30
2022-09-21T09:25:38.493Z,13.30
2022-09-21T09:28:20.952Z,13.40
2022-09-21T09:30:57.885Z,13.40
2022-09-21T09:33:29.214Z,13.50
2022-09-21T09:36:03.911Z,13.60
2022-09-21T09:38:38.656Z,13.60
2022-09-21T09:41:39.052Z,13.70
2022-09-21T09:44:22.130Z,13.80
2022-09-21T09:47:01.543Z,13.80
2022-09-21T09:49:43.425Z,13.90
2022-09-21T09:52:15.597Z,13.90
2022-09-21T09:54:44.852Z,14.00
2022-09-21T09:57:14.387Z,14.00
2022-09-21T09:59:53.309Z,14.10
2022-09-21T10:02:25.034Z,14.10
2022-09-21T10:05:06.073Z,14.20
2022-09-21T10:07:41.369Z,14.30
2022-09-21T10:10:33.071Z,14.30
2022-09-21T10:13:11.087Z,14.40
2022-09-21T10:15:44.746Z,14.50
2022-09-21T10:18:21.345Z,14.60
2022-09-21T10:20:58.131Z,14.70
2022-09-21T10:23:29.912Z,14.80
2022-09-21T10:26:01.373Z,14.90
2022-09-21T10:28:31.336Z,15.00
2022-09-21T10:31:19.257Z,15.10
2022-09-21T10:33:55.451Z,15.20
2022-09-21T10:36:28.785Z,15.30
2022-09-21T10:39:10.941Z,15.40
2022-09-21T10:41:39.592Z,15.50
2022-09-21T10:44:18.332Z,15.70
2022-09-21T10:46:47.061Z,15.80
2022-09-21T10:49:20.238Z,15.90
2022-09-21T10:51:50.655Z,16.00
2022-09-21T10:54:27.115Z,16.10
2022-09-21T10:57:02.194Z,16.30
2022-09-21T10:59:32.259Z,16.40
2022-09-21T11:02:02.061Z,16.50
2022-09-21T11:04:38.339Z,16.70
2022-09-21T11:07:16.289Z,16.80
2022-09-21T11:09:50.405Z,16.90
2022-09-21T11:12:33.763Z,17.10
2022-09-21T11:15:14.481Z,17.20
2022-09-21T11:17:49.831Z,17.40
2022-09-21T11:20:27.664Z,17.50
2022-09-21T11:23:04.418Z,17.60
2022-09-21T11:25:44.035Z,17.60
2022-09-21T11:28:20.611Z,17.70
2022-09-21T11:31:12.308Z,17.70
2022-09-21T11:34:07.784Z,17.70
2022-09-21T11:36:48.100Z,17.70
2022-09-21T11:39:24.738Z,17.80
2022-09-21T11:42:11.580Z,17.90
2022-09-21T11:44:51.262Z,18.00
2022-09-21T11:47:48.343Z,18.10
2022-09-21T11:50:44.595Z,18.30
2022-09-21T11:53:46.685Z,18.50
2022-09-21T11:56:46.850Z,18.80
2022-09-21T11:59:36.384Z,19.00
2022-09-21T12:02:31.995Z,19.20
2022-09-21T12:05:07.886Z,19.30
2022-09-21T12:07:52.323Z,19.50
2022-09-21T12:10:38.094Z,19.70
2022-09-21T12:13:14.097Z,19.90
2022-09-21T12:15:49.728Z,20.10
2022-09-21T12:18:26.334Z,20.20
2022-09-21T12:21:00.043Z,20.30
2022-09-21T12:23:33.772Z,20.50
2022-09-21T12:26:05.376Z,20.70
2022-09-21T12:28:38.934Z,20.80
2022-09-21T12:31:17.086Z,20.90
2022-09-21T12:33:49.999Z,21.00
2022-09-21T12:36:20.675Z,21.20
2022-09-21T12:38:55.132Z,21.30
2022-09-21T12:41:33.678Z,21.50
2022-09-21T12:44:14.304Z,21.60
2022-09-21T12:46:51.648Z,21.80
2022-09-21T12:49:31.571Z,21.90
2022-09-21T12:52:07.243Z,22.10
2022-09-21T12:54:45.350Z,22.20
2022-09-21T12:57:45.594Z,22.40
2022-09-21T13:00:17.546Z,22.50
2022-09-21T13:02:53.450Z,22.60
2022-09-21T13:05:33.248Z,22.60
2022-09-21T13:08:07.231Z,22.60
2022-09-21T13:10:51.781Z,22.70
2022-09-21T13:13:35.133Z,22.70
2022-09-21T13:16:05.262Z,22.60
2022-09-21T13:18:37.764Z,22.60
2022-09-21T13:21:22.038Z,22.50
2022-09-21T13:23:56.539Z,22.60
2022-09-21T13:26:37.373Z,22.70
2022-09-21T13:29:28.312Z,22.90
2022-09-21T13:31:59.329Z,23.00
2022-09-21T13:34:36.346Z,23.10
2022-09-21T13:37:31.375Z,23.10
2022-09-21T13:40:39.822Z,23.20
2022-09-21T13:43:26.002Z,23.30
2022-09-21T13:45:57.066Z,23.40
2022-09-21T13:48:29.508Z,23.50
2022-09-21T13:51:02.772Z,23.70
2022-09-21T13:53:36.378Z,23.80
2022-09-21T13:56:18.390Z,24.00
2022-09-21T13:58:49.497Z,24.20
2022-09-21T14:01:45.049Z,24.30
2022-09-21T14:04:21.541Z,24.50
2022-09-21T14:06:53.866Z,24.70
2022-09-21T14:09:25.618Z,24.90
2022-09-21T14:11:59.464Z,25.00
2022-09-21T14:14:31.750Z,25.00
2022-09-21T14:17:01.545Z,25.00
2022-09-21T14:20:03.540Z,24.80
2022-09-21T14:23:10.660Z,24.60
2022-09-21T14:25:51.733Z,24.40
2022-09-21T14:28:28.050Z,24.20
2022-09-21T14:31:04.961Z,23.90
2022-09-21T14:33:43.697Z,23.60
2022-09-21T14:36:18.297Z,23.30
2022-09-21T14:38:54.800Z,23.20
2022-09-21T14:41:26.007Z,23.00
2022-09-21T14:43:56.619Z,23.00
2022-09-21T14:46:51.876Z,23.10
2022-09-21T14:49:34.925Z,23.20
2022-09-21T14:52:21.112Z,23.40
2022-09-21T14:55:06.920Z,23.50
2022-09-21T14:57:48.817Z,23.70
2022-09-21T15:00:26.498Z,24.00
2022-09-21T15:03:25.297Z,24.20
2022-09-21T15:05:58.072Z,24.50
2022-09-21T15:09:11.217Z,24.70
2022-09-21T15:11:47.130Z,24.90
2022-09-21T15:14:28.054Z,25.10
2022-09-21T15:16:56.195Z,25.30
2022-09-21T15:19:26.930Z,25.40
2022-09-21T15:21:56.967Z,25.50
2022-09-21T15:24:31.906Z,25.70
2022-09-21T15:27:08.651Z,25.70
2022-09-21T15:29:39.105Z,25.80
2022-09-21T15:32:08.401Z,25.90
2022-09-21T15:34:36.590Z,25.90
2022-09-21T15:37:09.520Z,26.00
2022-09-21T15:39:37.713Z,26.00
2022-09-21T15:42:24.044Z,26.00
2022-09-21T15:45:06.551Z,26.10
2022-09-21T15:47:35.717Z,26.10
2022-09-21T15:50:04.306Z,26.10
2022-09-21T15:52:36.673Z,26.20
2022-09-21T15:55:15.625Z,26.20
2022-09-21T15:57:45.800Z,26.20
2022-09-21T16:00:24.222Z,26.20
2022-09-21T16:03:04.827Z,26.20
2022-09-21T16:05:42.997Z,26.20
2022-09-21T16:08:23.299Z,26.10
2022-09-21T16:10:51.526Z,26.00
2022-09-21T16:13:42.365Z,25.90
2022-09-21T16:16:12.224Z,25.70
2022-09-21T16:18:47.524Z,25.60
2022-09-21T16:21:23.719Z,25.40
2022-09-21T16:23:55.972Z,25.10
2022-09-21T16:26:27.397Z,24.80
2022-09-21T16:29:23.990Z,24.50
2022-09-21T16:31:52.523Z,24.10
2022-09-21T16:34:24.249Z,23.70
2022-09-21T16:36:55.217Z,23.50
2022-09-21T16:39:24.273Z,23.20
2022-09-21T16:42:00.049Z,22.80
2022-09-21T16:44:30.897Z,22.50
2022-09-21T16:47:00.949Z,22.20
2022-09-21T16:49:34.012Z,21.90
2022-09-21T16:52:02.399Z,21.60
2022-09-21T16:54:31.039Z,21.40
2022-09-21T16:57:00.689Z,21.10
2022-09-21T16:59:31.023Z,20.90
2022-09-21T17:02:00.565Z,20.60
2022-09-21T17:04:31.211Z,20.40
2022-09-21T17:07:00.864Z,20.20
2022-09-21T17:09:32.369Z,20.00
2022-09-21T17:12:01.631Z,19.80
2022-09-21T17:14:35.502Z,19.70
2022-09-21T17:17:06.116Z,19.50
2022-09-21T17:19:34.786Z,19.40
2022-09-21T17:22:04.474Z,20.20
2022-09-21T17:24:49.650Z,19.10
2022-09-21T17:27:20.057Z,19.00
2022-09-21T17:29:50.430Z,18.80
2022-09-21T17:32:21.092Z,18.70
2022-09-21T17:34:53.329Z,18.50
2022-09-21T17:37:22.288Z,18.40
2022-09-21T17:39:50.353Z,18.30
2022-09-21T17:42:21.286Z,18.10
2022-09-21T17:45:17.479Z,18.00
2022-09-21T17:47:46.370Z,17.90
2022-09-21T17:50:24.545Z,17.80
2022-09-21T17:53:11.503Z,17.70
2022-09-21T17:55:40.196Z,17.60
2022-09-21T17:58:25.556Z,17.60
2022-09-21T18:01:02.169Z,17.50
2022-09-21T18:03:32.794Z,17.50
2022-09-21T18:06:01.710Z,17.40
2022-09-21T18:08:31.309Z,17.40
2022-09-21T18:11:09.285Z,17.30
2022-09-21T18:13:50.190Z,17.20
2022-09-21T18:16:28.133Z,17.20
2022-09-21T18:19:18.048Z,17.10
2022-09-21T18:21:51.062Z,17.10
2022-09-21T18:24:22.093Z,17.00
2022-09-21T18:26:52.337Z,17.00
2022-09-21T18:29:39.366Z,16.90
2022-09-21T18:32:26.452Z,16.80
2022-09-21T18:35:20.697Z,16.70
2022-09-21T18:38:03.259Z,16.60
2022-09-21T18:40:39.484Z,16.60
2022-09-21T18:43:22.672Z,16.50
2022-09-21T18:45:58.246Z,16.50
2022-09-21T18:48:48.501Z,16.50
2022-09-21T18:51:25.048Z,16.40
2022-09-21T18:53:56.452Z,16.40
2022-09-21T18:56:25.695Z,16.40
2022-09-21T18:58:54.398Z,16.40
2022-09-21T19:01:24.246Z,16.30
2022-09-21T19:03:54.392Z,16.30
2022-09-21T19:06:33.038Z,16.30
2022-09-21T19:09:08.936Z,16.20
2022-09-21T19:11:45.186Z,16.20
2022-09-21T19:14:20.199Z,16.10
2022-09-21T19:17:05.193Z,16.10
2022-09-21T19:19:43.054Z,16.00
2022-09-21T19:22:17.476Z,16.00
2022-09-21T19:24:55.412Z,15.90
2022-09-21T19:27:29.716Z,15.90
2022-09-21T19:30:05.909Z,15.90
2022-09-21T19:32:37.784Z,15.80
2022-09-21T19:35:22.493Z,15.80
2022-09-21T19:37:52.031Z,15.80
2022-09-21T19:40:22.241Z,15.70
2022-09-21T19:43:21.588Z,15.70
2022-09-21T19:46:05.854Z,15.70
2022-09-21T19:48:43.177Z,15.60
2022-09-21T19:51:18.451Z,15.50
2022-09-21T19:54:08.594Z,15.50
2022-09-21T19:56:58.081Z,15.40
2022-09-21T19:59:45.169Z,15.40
2022-09-21T20:02:15.831Z,15.30
2022-09-21T20:04:51.251Z,15.30
2022-09-21T20:07:30.100Z,15.30
2022-09-21T20:10:10.841Z,15.20
2022-09-21T20:12:47.102Z,15.20
2022-09-21T20:15:20.352Z,15.20
2022-09-21T20:17:53.151Z,15.10
2022-09-21T20:20:26.309Z,15.10
2022-09-21T20:22:56.802Z,15.00
2022-09-21T20:25:28.683Z,15.00
2022-09-21T20:27:58.059Z,15.00
2022-09-21T20:30:27.913Z,14.90
2022-09-21T20:32:59.025Z,14.90
2022-09-21T20:35:29.319Z,14.90
2022-09-21T20:38:02.588Z,14.80
2022-09-21T20:40:32.757Z,14.70
2022-09-21T20:43:01.974Z,14.70
2022-09-21T20:45:32.311Z,14.70
2022-09-21T20:48:13.522Z,14.60
2022-09-21T20:50:43.104Z,14.60
2022-09-21T20:53:13.153Z,14.50
2022-09-21T20:55:42.427Z,14.50
2022-09-21T20:58:12.819Z,14.50
2022-09-21T21:00:40.987Z,14.40
2022-09-21T21:03:09.037Z,14.40
2022-09-21T21:05:37.221Z,14.30
2022-09-21T21:08:05.694Z,14.30
2022-09-21T21:10:35.187Z,14.30
2022-09-21T21:13:03.284Z,14.20
2022-09-21T21:15:32.465Z,14.20
2022-09-21T21:18:00.907Z,14.20
2022-09-21T21:20:30.483Z,14.10
2022-09-21T21:22:58.512Z,14.10
2022-09-21T21:25:27.043Z,14.10
2022-09-21T21:27:59.152Z,14.00
2022-09-21T21:30:27.207Z,14.00
2022-09-21T21:32:55.275Z,14.00
2022-09-21T21:35:23.801Z,13.90
2022-09-21T21:37:52.274Z,13.90
2022-09-21T21:40:20.915Z,13.80
2022-09-21T21:42:49.428Z,13.90
2022-09-21T21:45:21.503Z,13.80
2022-09-21T21:47:50.137Z,13.80
2022-09-21T21:50:18.331Z,13.70
2022-09-21T21:52:46.820Z,13.70
2022-09-21T21:55:14.975Z,13.70
2022-09-21T21:57:43.657Z,13.60
2022-09-21T22:00:13.181Z,13.60
2022-09-21T22:02:42.596Z,13.60
2022-09-21T22:05:10.916Z,13.60
2022-09-21T22:07:41.136Z,13.50
2022-09-21T22:10:10.289Z,13.50
2022-09-21T22:12:39.062Z,13.50
2022-09-21T22:15:08.352Z,13.50
2022-09-21T22:17:36.396Z,13.40
2022-09-21T22:20:06.607Z,13.40
2022-09-21T22:22:34.687Z,13.40
2022-09-21T22:25:03.515Z,13.40
2022-09-21T22:27:31.976Z,13.30
2022-09-21T22:30:00.051Z,13.30
2022-09-21T22:32:28.563Z,13.30
2022-09-21T22:34:56.643Z,13.20
2022-09-21T22:37:26.608Z,13.20
2022-09-21T22:39:54.629Z,13.10
2022-09-21T22:42:23.710Z,13.10
2022-09-21T22:44:51.771Z,13.00
2022-09-21T22:47:19.856Z,13.00
2022-09-21T22:49:48.321Z,13.00
2022-09-21T22:52:16.310Z,12.90
2022-09-21T22:54:46.172Z,12.90
2022-09-21T22:57:14.649Z,12.90
2022-09-21T22:59:42.705Z,12.90
2022-09-21T23:02:12.003Z,12.90
2022-09-21T23:04:40.071Z,12.90
2022-09-21T23:07:08.571Z,12.90
2022-09-21T23:09:36.632Z,12.80
2022-09-21T23:12:06.688Z,12.80
2022-09-21T23:14:35.170Z,12.80
2022-09-21T23:17:03.207Z,12.70
2022-09-21T23:19:31.767Z,12.70
2022-09-21T23:21:59.885Z,12.70
2022-09-21T23:24:27.938Z,12.70
2022-09-21T23:26:56.367Z,12.70
2022-09-21T23:29:25.775Z,12.60
2022-09-21T23:31:53.923Z,12.60
2022-09-21T23:34:22.605Z,12.60
2022-09-21T23:36:51.142Z,12.50
2022-09-21T23:39:19.789Z,12.50
2022-09-21T23:41:47.858Z,12.50
2022-09-21T23:44:16.545Z,12.50
2022-09-21T23:46:45.975Z,12.50
2022-09-21T23:49:14.062Z,12.50
2022-09-21T23:51:43.023Z,12.40
2022-09-21T23:54:11.044Z,12.40
2022-09-21T23:56:39.541Z,12.40
2022-09-21T23:59:07.838Z,12.40
